Time;durP1;ratioP1;P1;durP2;ratioP2;P2;SDS_P1;SDS_P2;PMS_P1;PMS_P2;Temp;Humidity;BMP_temperature;BMP_pressure;BME280_temperature;BME280_humidity;BME280_pressure;Samples;Min_cycle;Max_cycle;Signal;HPM_P1;HPM_P2
2023/11/08 00:00:49;;;;;;;3.92;0.90;;;8.90;99.90;;;9.09;100.00;100494.75;4733382;30;20214;-69
2023/11/08 00:03:18;;;;;;;1.60;0.98;;;9.00;99.90;;;9.15;100.00;100501.19;4736110;30;20244;-68
2023/11/08 00:05:49;;;;;;;2.17;1.00;;;9.00;95.10;;;9.12;100.00;100502.44;4735816;30;20554;-68
2023/11/08 00:08:18;;;;;;;1.38;0.60;;;9.00;84.40;;;9.02;100.00;100493.88;4735988;30;20200;-68
2023/11/08 00:10:48;;;;;;;1.17;0.85;;;9.00;63.50;;;9.15;100.00;100495.78;4735703;30;20197;-69
2023/11/08 00:13:20;;;;;;;2.80;0.73;;;9.00;99.90;;;9.01;100.00;100492.22;4735929;30;20228;-68
2023/11/08 00:15:51;;;;;;;3.30;1.02;;;8.90;99.90;;;8.95;100.00;100490.34;4736112;30;20273;-69
2023/11/08 00:18:32;;;;;;;1.00;0.70;;;8.90;99.90;;;8.94;100.00;100490.53;4735842;30;20208;-68
2023/11/08 00:21:01;;;;;;;1.85;0.65;;;8.90;99.90;;;9.01;100.00;100494.91;4735468;30;20699;-69
2023/11/08 00:23:30;;;;;;;2.10;0.95;;;8.90;99.90;;;8.94;100.00;100493.22;4735358;30;20286;-69
2023/11/08 00:25:59;;;;;;;1.73;1.20;;;8.90;99.90;;;8.89;100.00;100491.13;4735706;30;20208;-69
2023/11/08 00:28:27;;;;;;;1.52;0.70;;;8.90;99.90;;;8.77;100.00;100489.19;4735700;30;20626;-68
2023/11/08 00:30:58;;;;;;;2.47;0.90;;;8.80;99.90;;;8.76;100.00;100501.03;4734312;30;20266;-69
2023/11/08 00:33:27;;;;;;;1.63;1.52;;;8.70;99.90;;;8.65;100.00;100500.56;4734006;30;20524;-69
2023/11/08 00:35:55;;;;;;;21.42;8.38;;;8.70;1.00;;;8.60;100.00;100488.72;4735230;30;20205;-68
2023/11/08 00:38:25;;;;;;;4.00;2.53;;;8.60;1.00;;;8.57;100.00;100487.22;4735833;30;20215;-69
2023/11/08 00:40:55;;;;;;;1.00;0.80;;;8.50;1.00;;;8.62;100.00;100489.31;4735436;30;20204;-67
2023/11/08 00:43:29;;;;;;;4.32;2.90;;;8.60;1.00;;;8.31;100.00;100486.25;4735345;30;20319;-68
2023/11/08 00:46:02;;;;;;;2.08;1.58;;;8.40;1.00;;;8.19;100.00;100492.13;4735937;30;20206;-67
2023/11/08 00:48:32;;;;;;;3.15;1.50;;;8.30;1.00;;;8.16;100.00;100494.41;4748107;30;20208;-68
2023/11/08 00:51:01;;;;;;;1.30;0.90;;;8.20;45.20;;;8.10;100.00;100493.31;4734095;30;20204;-70
2023/11/08 00:53:30;;;;;;;2.05;0.80;;;8.20;10.80;;;8.12;100.00;100501.22;4734579;30;20227;-68
2023/11/08 00:55:59;;;;;;;3.25;0.82;;;8.20;99.90;;;7.91;100.00;100491.28;4734787;30;20235;-68
2023/11/08 00:58:31;;;;;;;2.28;1.35;;;8.10;99.90;;;7.75;100.00;100487.00;4734536;30;20204;-68
2023/11/08 01:01:01;;;;;;;1.10;0.82;;;7.90;99.90;;;7.61;100.00;100489.78;4735109;30;20207;-69
2023/11/08 01:03:30;;;;;;;3.33;1.05;;;7.80;99.90;;;7.70;100.00;100488.63;4733645;30;20406;-68
2023/11/08 01:05:59;;;;;;;1.88;0.75;;;7.80;99.90;;;7.70;100.00;100494.00;4748470;30;20287;-68
2023/11/08 01:08:31;;;;;;;0.93;0.70;;;7.80;99.90;;;7.65;100.00;100491.06;4735617;30;20680;-67
2023/11/08 01:11:00;;;;;;;1.00;0.68;;;7.80;99.90;;;7.68;100.00;100485.28;4735529;30;20275;-69
2023/11/08 01:13:31;;;;;;;1.20;0.90;;;7.80;1.00;;;7.65;100.00;100488.38;4748335;30;20740;-68
2023/11/08 01:16:02;;;;;;;1.00;0.80;;;7.70;1.00;;;7.74;100.00;100485.38;4748302;30;20681;-68
2023/11/08 01:18:32;;;;;;;2.03;1.02;;;7.70;56.20;;;7.67;100.00;100487.16;4734804;30;20220;-70
2023/11/08 01:21:01;;;;;;;0.90;0.60;;;7.70;1.00;;;7.65;100.00;100477.63;4733298;30;20207;-69
2023/11/08 01:23:30;;;;;;;1.30;0.98;;;7.80;99.90;;;7.63;100.00;100485.03;4734859;30;20322;-69
2023/11/08 01:25:58;;;;;;;2.15;1.00;;;7.70;43.60;;;7.56;100.00;100486.81;4748622;30;20307;-68
2023/11/08 01:28:30;;;;;;;0.90;0.73;;;7.70;1.00;;;7.56;100.00;100481.44;4733449;30;20197;-68
2023/11/08 01:30:58;;;;;;;1.00;0.70;;;7.60;6.80;;;7.61;100.00;100479.00;4735009;30;20200;-67
2023/11/08 01:33:28;;;;;;;1.20;0.80;;;7.60;91.50;;;7.57;100.00;100475.88;4733403;30;20235;-69
2023/11/08 01:35:57;;;;;;;0.90;0.70;;;7.60;99.90;;;7.47;100.00;100474.53;4734194;30;20212;-68
2023/11/08 01:38:28;;;;;;;1.13;0.70;;;7.60;99.90;;;7.34;100.00;100481.44;4747774;30;20216;-68
2023/11/08 01:40:57;;;;;;;1.05;0.75;;;7.50;37.80;;;7.31;100.00;100473.75;4734548;30;20293;-69
2023/11/08 01:43:34;;;;;;;2.65;0.95;;;7.40;99.90;;;7.32;100.00;100480.78;4734290;30;20232;-68
2023/11/08 01:46:08;;;;;;;1.55;0.70;;;7.40;99.90;;;7.44;100.00;100478.44;4734766;30;20208;-70
2023/11/08 01:48:41;;;;;;;2.03;1.42;;;7.50;1.00;;;7.42;100.00;100475.09;4748573;30;20216;-69
2023/11/08 01:51:12;;;;;;;1.73;1.27;;;7.50;1.00;;;7.43;100.00;100480.31;4734411;30;20212;-69
2023/11/08 01:53:46;;;;;;;1.40;0.88;;;7.40;1.00;;;7.40;100.00;100483.38;4744647;30;20252;-68
2023/11/08 01:56:17;;;;;;;2.67;0.95;;;7.40;1.00;;;7.34;100.00;100483.31;4745704;30;20307;-67
2023/11/08 01:58:47;;;;;;;1.20;0.82;;;7.40;1.00;;;7.32;100.00;100480.78;4747936;30;20208;-70
2023/11/08 02:01:18;;;;;;;1.15;1.05;;;7.40;1.00;;;7.48;100.00;100477.03;4747655;30;20648;-70
2023/11/08 02:03:53;;;;;;;1.38;1.05;;;7.50;1.00;;;7.46;100.00;100478.22;4734311;30;20312;-68
2023/11/08 02:06:26;;;;;;;2.63;0.80;;;7.40;1.00;;;7.31;100.00;100479.13;4733149;30;20210;-68
2023/11/08 02:08:55;;;;;;;1.67;0.98;;;7.40;1.00;;;7.31;100.00;100476.44;4733861;30;20216;-70
2023/11/08 02:11:24;;;;;;;1.85;0.88;;;7.40;1.00;;;7.31;100.00;100472.94;4747522;30;20212;-69
2023/11/08 02:13:53;;;;;;;1.92;1.00;;;7.40;1.00;;;7.29;100.00;100469.59;4733989;30;20707;-69
2023/11/08 02:16:22;;;;;;;1.90;1.20;;;7.30;1.00;;;7.23;100.00;100462.25;4732755;30;20219;-70
2023/11/08 02:18:52;;;;;;;1.67;1.02;;;7.30;92.80;;;7.25;100.00;100465.63;4732810;30;20287;-68
2023/11/08 02:21:21;;;;;;;1.45;0.80;;;7.30;99.90;;;7.12;100.00;100462.75;4747713;30;20235;-69
2023/11/08 02:23:53;;;;;;;1.33;0.88;;;7.20;99.90;;;7.32;100.00;100469.19;4747371;30;20224;-69
2023/11/08 02:26:24;;;;;;;1.98;0.98;;;7.30;99.90;;;7.17;100.00;100466.53;4732634;30;20226;-69
2023/11/08 02:28:52;;;;;;;1.95;0.93;;;7.30;99.90;;;7.26;100.00;100465.41;4747654;30;20630;-69
2023/11/08 02:31:21;;;;;;;3.03;1.30;;;7.30;99.90;;;7.36;100.00;100465.91;4734214;30;20212;-69
2023/11/08 02:33:50;;;;;;;1.10;0.80;;;7.30;99.90;;;7.18;100.00;100459.31;4748066;30;20235;-68
2023/11/08 02:36:19;;;;;;;0.80;0.50;;;7.30;99.90;;;7.18;100.00;100460.16;4748044;30;20306;-68
2023/11/08 02:38:48;;;;;;;4.72;1.20;;;7.20;99.90;;;7.25;100.00;100458.38;4748317;30;20206;-70
2023/11/08 02:41:16;;;;;;;2.15;0.70;;;7.30;99.90;;;7.14;100.00;100461.56;4735262;30;20218;-68
2023/11/08 02:43:47;;;;;;;1.02;0.85;;;7.20;99.90;;;7.19;100.00;100460.97;4734347;30;20228;-67
2023/11/08 02:46:17;;;;;;;1.05;0.80;;;7.20;1.00;;;7.19;100.00;100464.50;4734247;30;20676;-70
2023/11/08 02:53:30;;;;;;;1.25;0.70;;;7.20;99.90;;;7.28;100.00;100454.44;4731731;30;20239;-67
2023/11/08 02:55:58;;;;;;;1.02;0.55;;;7.30;1.00;;;7.22;100.00;100458.75;4734189;30;20200;-68
2023/11/08 02:58:27;;;;;;;1.23;0.95;;;7.20;99.90;;;7.09;100.00;100457.78;4733881;30;20299;-69
2023/11/08 03:00:59;;;;;;;1.38;0.85;;;7.20;99.90;;;7.18;100.00;100453.94;4734795;30;20254;-69
2023/11/08 03:03:28;;;;;;;1.30;0.80;;;7.20;1.00;;;7.19;100.00;100453.75;4731174;30;20247;-69
2023/11/08 03:05:58;;;;;;;1.10;0.70;;;7.20;1.00;;;7.18;100.00;100448.53;4732852;30;20257;-69
2023/11/08 03:08:27;;;;;;;1.20;1.00;;;7.20;1.00;;;7.37;100.00;100461.38;4734015;30;20590;-69
2023/11/08 03:10:55;;;;;;;1.30;0.95;;;7.30;1.00;;;7.22;100.00;100456.03;4747399;30;20211;-69
2023/11/08 03:13:25;;;;;;;1.10;1.00;;;7.20;99.90;;;7.22;100.00;100447.97;4733553;30;20223;-69
2023/11/08 03:15:56;;;;;;;1.83;1.08;;;7.20;1.00;;;7.10;100.00;100452.22;4733244;30;20201;-69
2023/11/08 03:18:50;;;;;;;1.23;0.85;;;7.20;1.00;;;7.11;100.00;100451.19;4733259;30;20282;-69
2023/11/08 03:21:19;;;;;;;1.33;0.90;;;7.10;1.00;;;7.18;100.00;100457.47;4750690;30;20291;-68
2023/11/08 03:23:52;;;;;;;2.28;1.88;;;7.20;1.00;;;7.09;100.00;100458.59;4746031;30;20305;-68
2023/11/08 03:26:20;;;;;;;0.80;0.60;;;7.10;41.70;;;7.15;100.00;100447.09;4736295;30;20668;-69
2023/11/08 03:28:49;;;;;;;0.88;0.57;;;7.10;26.70;;;7.11;100.00;100453.88;4736692;30;20679;-69
2023/11/08 03:31:19;;;;;;;2.42;1.00;;;7.10;1.00;;;7.03;100.00;100459.34;4736789;30;20215;-68
2023/11/08 03:33:48;;;;;;;3.85;0.70;;;7.10;1.00;;;7.25;100.00;100460.22;4735426;30;20303;-70
2023/11/08 03:36:17;;;;;;;1.75;1.20;;;7.20;99.90;;;7.14;100.00;100456.19;4733656;30;20232;-69
2023/11/08 03:38:46;;;;;;;1.23;0.70;;;7.10;1.00;;;7.13;100.00;100457.19;4736590;30;20254;-69
2023/11/08 03:41:15;;;;;;;1.33;0.93;;;7.10;1.00;;;7.06;100.00;100453.63;4736765;30;20266;-68
2023/11/08 03:43:45;;;;;;;1.48;0.90;;;7.10;1.00;;;7.10;100.00;100448.69;4739902;30;20703;-68
2023/11/08 03:46:13;;;;;;;1.40;0.80;;;7.10;72.70;;;6.99;100.00;100452.69;4735051;30;20208;-68
2023/11/08 03:48:44;;;;;;;1.30;1.20;;;7.10;1.00;;;6.91;100.00;100456.34;4736833;30;20753;-67
2023/11/08 03:51:13;;;;;;;1.73;1.25;;;7.00;1.00;;;7.01;100.00;100455.19;4736646;30;20332;-67
2023/11/08 03:53:41;;;;;;;2.38;0.85;;;7.00;81.20;;;6.93;100.00;100454.28;4736230;30;20220;-68
2023/11/08 03:56:10;;;;;;;1.27;0.75;;;7.00;99.90;;;6.81;100.00;100457.66;4736072;30;20235;-67
2023/11/08 03:58:39;;;;;;;1.38;1.20;;;7.00;99.90;;;6.74;100.00;100459.41;4735824;30;20196;-67
2023/11/08 04:01:08;;;;;;;1.27;0.82;;;6.90;99.90;;;6.88;100.00;100456.69;4736422;30;20719;-69
2023/11/08 04:03:37;;;;;;;1.30;1.20;;;6.90;99.90;;;6.84;100.00;100446.50;4750348;30;20797;-68
2023/11/08 04:06:08;;;;;;;1.02;0.70;;;6.90;99.90;;;6.91;100.00;100458.19;4736728;30;20667;-68
2023/11/08 04:08:37;;;;;;;0.90;0.70;;;6.90;1.00;;;6.89;100.00;100458.38;4737148;30;20208;-68
2023/11/08 04:11:06;;;;;;;1.90;1.00;;;6.90;99.90;;;6.89;100.00;100460.22;4737402;30;20230;-68
2023/11/08 04:13:34;;;;;;;0.80;0.55;;;6.90;1.00;;;6.97;100.00;100460.13;4738985;30;20603;-69
2023/11/08 04:16:04;;;;;;;1.20;1.00;;;7.00;1.00;;;7.13;100.00;100459.88;4734687;30;20208;-68
2023/11/08 04:18:34;;;;;;;1.00;0.70;;;7.10;99.90;;;7.33;100.00;100455.56;4729700;30;20294;-68
2023/11/08 04:21:04;;;;;;;1.70;0.88;;;7.20;99.90;;;7.51;100.00;100459.63;4735700;30;20196;-68
2023/11/08 04:23:34;;;;;;;1.10;0.65;;;7.30;99.90;;;7.56;100.00;100454.50;4735729;30;20224;-69
2023/11/08 04:26:07;;;;;;;5.15;1.10;;;7.40;1.00;;;7.81;100.00;100462.00;4735523;30;20200;-67
2023/11/08 04:28:40;;;;;;;1.20;0.90;;;7.50;1.00;;;7.92;100.00;100455.25;4734663;30;20356;-68
2023/11/08 04:31:08;;;;;;;1.77;1.20;;;7.70;99.90;;;7.98;100.00;100465.25;4732200;30;20294;-68
2023/11/08 04:33:37;;;;;;;1.10;0.77;;;7.80;1.00;;;7.93;100.00;100461.47;4748366;30;20263;-69
2023/11/08 04:36:08;;;;;;;3.53;1.27;;;7.80;99.90;;;8.04;100.00;100458.22;4731233;30;20228;-68
2023/11/08 04:38:38;;;;;;;1.33;0.85;;;7.90;99.90;;;7.99;100.00;100453.41;4734245;30;20708;-68
2023/11/08 04:41:14;;;;;;;1.60;1.23;;;7.90;27.10;;;8.11;100.00;100461.81;4735409;30;20418;-68
2023/11/08 04:43:43;;;;;;;2.38;1.50;;;7.90;99.90;;;8.12;100.00;100461.63;4728836;30;20645;-68
2023/11/08 04:46:13;;;;;;;1.10;0.80;;;7.90;1.00;;;8.14;100.00;100459.56;4735556;30;20200;-68
2023/11/08 04:48:42;;;;;;;1.73;1.17;;;8.00;1.00;;;8.22;100.00;100459.41;4735327;30;20203;-69
2023/11/08 04:51:11;;;;;;;1.00;0.80;;;8.00;1.00;;;8.12;100.00;100461.63;4735352;30;20211;-69
2023/11/08 04:53:41;;;;;;;1.35;1.02;;;8.00;1.00;;;8.33;100.00;100457.22;4732620;30;20216;-69
2023/11/08 04:56:09;;;;;;;1.33;0.80;;;8.10;1.00;;;8.27;100.00;100459.66;4735118;30;20204;-67
2023/11/08 04:59:53;;;;;;;1.70;1.08;;;8.10;30.80;;;8.36;100.00;100463.06;4747703;30;20226;-68
2023/11/08 05:02:21;;;;;;;1.20;0.90;;;8.20;1.00;;;8.27;100.00;100456.97;4734978;30;20207;-68
2023/11/08 05:04:50;;;;;;;0.90;0.70;;;8.20;99.90;;;8.29;100.00;100463.00;4735011;30;20216;-69
2023/11/08 05:07:19;;;;;;;1.77;0.90;;;8.10;99.90;;;8.37;100.00;100472.81;4735158;30;20207;-68
2023/11/08 05:09:50;;;;;;;0.88;0.63;;;8.20;1.00;;;8.29;100.00;100471.09;4733044;30;20487;-68
2023/11/08 05:12:20;;;;;;;1.60;0.90;;;8.20;99.90;;;8.31;100.00;100462.81;4733529;30;20200;-66
2023/11/08 05:14:49;;;;;;;1.15;0.95;;;8.20;99.90;;;8.36;100.00;100462.22;4748525;30;20319;-68
2023/11/08 05:17:20;;;;;;;0.93;0.60;;;8.20;99.90;;;8.33;100.00;100462.63;4735102;30;20349;-68
2023/11/08 05:19:48;;;;;;;1.33;0.80;;;8.20;99.90;;;8.38;100.00;100460.13;4731306;30;20702;-70
2023/11/08 05:22:17;;;;;;;1.27;0.75;;;8.20;99.90;;;8.43;100.00;100463.06;4729075;30;20256;-69
2023/11/08 05:24:46;;;;;;;1.25;0.75;;;8.30;99.90;;;8.45;100.00;100461.03;4734756;30;20239;-67
2023/11/08 05:27:18;;;;;;;1.45;1.15;;;8.30;99.90;;;8.33;100.00;100459.94;4734743;30;20215;-68
2023/11/08 05:29:47;;;;;;;1.73;0.88;;;8.20;99.90;;;8.28;100.00;100458.59;4729738;30;20200;-68
2023/11/08 05:32:19;;;;;;;1.05;0.90;;;8.20;99.90;;;8.15;100.00;100466.63;4734815;30;20205;-67
2023/11/08 05:34:51;;;;;;;1.83;1.70;;;8.10;99.90;;;8.23;100.00;100458.34;4734530;30;20587;-67
2023/11/08 05:37:20;;;;;;;6.00;1.27;;;8.10;99.90;;;8.29;100.00;100468.41;4734473;30;20227;-68
2023/11/08 05:39:49;;;;;;;1.00;0.80;;;8.20;99.90;;;8.20;100.00;100463.31;4727814;30;20211;-67
2023/11/08 05:42:22;;;;;;;10.73;0.98;;;8.10;99.90;;;8.09;100.00;100472.78;4733942;30;20613;-67
2023/11/08 05:44:52;;;;;;;1.25;0.90;;;8.10;1.00;;;8.21;100.00;100473.91;4734262;30;20254;-69
2023/11/08 05:47:22;;;;;;;1.00;0.77;;;8.10;1.00;;;8.14;100.00;100473.03;4734487;30;20295;-68
2023/11/08 05:49:51;;;;;;;1.85;1.23;;;8.10;99.90;;;8.16;100.00;100472.84;4733808;30;20690;-68
2023/11/08 05:52:20;;;;;;;1.42;0.88;;;8.10;99.90;;;8.26;100.00;100479.56;4734199;30;20196;-67
2023/11/08 05:54:52;;;;;;;1.85;1.10;;;8.10;1.00;;;8.33;100.00;100484.19;4729594;30;20267;-68
2023/11/08 05:57:22;;;;;;;1.67;0.90;;;8.20;1.00;;;8.29;100.00;100483.69;4734266;30;20192;-68
2023/11/08 05:59:51;;;;;;;2.03;1.05;;;8.10;1.00;;;8.28;100.00;100477.47;4733564;30;20207;-68
2023/11/08 06:02:29;;;;;;;1.30;1.00;;;8.20;1.00;;;8.26;100.00;100484.09;4734538;30;20667;-69
2023/11/08 06:04:59;;;;;;;1.42;0.68;;;8.20;99.90;;;8.35;100.00;100484.81;4734481;30;20589;-68
2023/11/08 06:07:28;;;;;;;1.00;0.85;;;8.20;1.00;;;8.27;100.00;100489.31;4734116;30;20283;-68
2023/11/08 06:10:00;;;;;;;1.40;1.10;;;8.20;1.00;;;8.34;100.00;100485.84;4730789;30;20204;-68
2023/11/08 06:12:30;;;;;;;1.80;1.20;;;8.20;99.90;;;8.33;100.00;100486.88;4734142;30;20204;-67
2023/11/08 06:15:00;;;;;;;3.60;1.75;;;8.20;1.00;;;8.29;100.00;100495.34;4734099;30;20228;-68
2023/11/08 06:17:32;;;;;;;7.20;1.40;;;8.20;99.90;;;8.38;100.00;100492.50;4733981;30;20208;-67
2023/11/08 06:19:59;;;;;;;1.30;0.90;;;8.30;1.00;;;8.46;100.00;100495.91;4734380;30;20208;-68
2023/11/08 06:22:31;;;;;;;13.70;1.25;;;8.30;99.90;;;8.41;100.00;100502.91;4734868;30;20222;-68
2023/11/08 06:25:00;;;;;;;1.10;0.70;;;8.30;1.00;;;8.47;100.00;100502.13;4736667;30;20770;-68
2023/11/08 06:27:30;;;;;;;1.08;0.90;;;8.30;99.90;;;8.55;100.00;100496.56;4736377;30;20590;-68
2023/11/08 06:30:04;;;;;;;1.20;1.02;;;8.40;99.90;;;8.61;100.00;100510.09;4735003;30;20673;-68
2023/11/08 06:32:45;;;;;;;1.27;0.82;;;8.40;99.90;;;8.50;100.00;100507.09;4746293;30;20203;-68
2023/11/08 06:35:28;;;;;;;4.07;0.80;;;8.40;99.90;;;8.67;100.00;100508.44;4747074;30;20652;-68
2023/11/08 06:38:08;;;;;;;3.28;1.05;;;8.50;99.90;;;8.76;100.00;100503.75;4748020;30;20207;-68
2023/11/08 06:40:55;;;;;;;1.40;1.00;;;8.60;99.90;;;8.73;100.00;100511.19;4736373;30;20205;-68
2023/11/08 06:43:37;;;;;;;3.17;1.77;;;8.60;99.90;;;8.79;100.00;100517.66;4731737;30;20272;-68
2023/11/08 06:46:27;;;;;;;2.83;1.30;;;8.60;99.90;;;8.80;100.00;100513.94;4734263;30;20223;-68
2023/11/08 06:49:16;;;;;;;1.10;0.95;;;8.70;99.90;;;8.64;100.00;100519.63;4734118;30;20208;-68
2023/11/08 06:52:05;;;;;;;2.28;1.42;;;8.60;1.00;;;8.90;100.00;100525.19;4742643;30;20212;-68
2023/11/08 06:54:49;;;;;;;2.65;1.10;;;8.70;1.00;;;8.72;100.00;100527.56;4751077;30;20289;-69
2023/11/08 07:00:54;;;;;;;5.75;1.10;;;8.60;1.00;;;8.75;100.00;100527.19;4737861;30;20212;-68
2023/11/08 07:03:53;;;;;;;3.28;1.48;;;8.60;1.00;;;8.82;100.00;100533.44;4750297;30;20271;-68
2023/11/08 07:06:40;;;;;;;1.95;1.42;;;8.60;96.90;;;8.96;100.00;100535.16;4738924;30;20220;-69
2023/11/08 07:09:26;;;;;;;1.25;1.00;;;8.70;99.90;;;8.93;100.00;100535.56;4735778;30;20227;-68
2023/11/08 07:12:03;;;;;;;2.00;1.20;;;8.80;1.00;;;8.95;100.00;100533.53;4732764;30;20211;-69
2023/11/08 07:14:42;;;;;;;1.42;1.20;;;8.80;32.40;;;9.08;100.00;100532.75;4751568;30;20285;-69
2023/11/08 07:17:29;;;;;;;1.98;1.35;;;8.90;1.00;;;9.03;100.00;100536.03;4752202;30;20219;-68
2023/11/08 07:20:10;;;;;;;1.80;1.50;;;8.80;1.00;;;9.19;100.00;100542.13;4734979;30;20242;-68
2023/11/08 07:23:00;;;;;;;2.88;0.95;;;8.90;1.00;;;9.12;100.00;100542.09;4737456;30;20781;-68
2023/11/08 07:25:42;;;;;;;8.63;1.40;;;8.90;1.00;;;9.24;100.00;100542.34;4751971;30;20227;-68
2023/11/08 07:28:30;;;;;;;1.50;0.88;;;9.00;99.90;;;9.21;100.00;100548.13;4735986;30;20241;-69
2023/11/08 07:31:13;;;;;;;1.55;1.20;;;9.00;99.90;;;9.26;100.00;100548.38;4719225;30;20256;-68
2023/11/08 07:34:02;;;;;;;0.90;0.65;;;9.00;99.90;;;9.29;100.00;100554.22;4752034;30;20255;-68
2023/11/08 07:36:51;;;;;;;5.03;1.33;;;9.10;99.90;;;9.25;100.00;100560.19;4752366;30;20278;-68
2023/11/08 07:39:37;;;;;;;3.13;1.45;;;9.10;99.90;;;9.31;100.00;100554.84;4737869;30;20236;-68
2023/11/08 07:42:22;;;;;;;1.27;1.13;;;9.10;99.90;;;9.27;100.00;100558.97;4736130;30;20208;-69
2023/11/08 07:45:04;;;;;;;3.20;1.83;;;9.10;99.90;;;9.32;100.00;100561.06;4745610;30;20210;-69
2023/11/08 07:47:45;;;;;;;4.43;1.73;;;9.20;99.90;;;9.39;100.00;100556.53;4750726;30;20470;-67
2023/11/08 07:50:34;;;;;;;1.55;1.10;;;9.20;68.80;;;9.47;100.00;100559.06;4736612;30;20289;-67
2023/11/08 07:53:21;;;;;;;1.92;1.00;;;9.20;99.90;;;9.58;100.00;100561.19;4751882;30;20322;-69
2023/11/08 07:56:13;;;;;;;2.53;1.45;;;9.40;1.00;;;9.62;100.00;100562.44;4732176;30;20312;-68
2023/11/08 07:59:03;;;;;;;1.30;1.20;;;9.40;1.00;;;9.73;100.00;100564.50;4737792;30;20210;-67
2023/11/08 08:01:56;;;;;;;1.07;0.87;;;9.50;1.00;;;9.79;99.43;100565.56;4751411;30;20235;-69
2023/11/08 08:04:53;;;;;;;1.33;0.80;;;9.50;1.00;;;10.03;98.30;100573.91;4750885;30;20478;-69
2023/11/08 08:07:46;;;;;;;1.42;1.00;;;9.70;99.90;;;9.94;97.27;100574.31;4736182;30;20488;-68
2023/11/08 08:10:33;;;;;;;1.40;1.13;;;9.80;99.90;;;9.95;97.72;100571.44;4740182;30;20273;-68
2023/11/08 08:13:18;;;;;;;2.33;1.40;;;9.70;1.00;;;9.95;97.40;100568.72;4753586;30;20453;-70
2023/11/08 08:16:15;;;;;;;2.17;1.20;;;9.70;99.90;;;10.20;96.52;100571.69;4747758;30;20533;-68
2023/11/08 08:19:08;;;;;;;3.43;1.23;;;10.00;99.90;;;9.99;97.16;100575.38;4751633;30;20442;-67
2023/11/08 08:22:06;;;;;;;1.30;0.77;;;9.80;99.90;;;9.97;97.54;100580.13;4749533;30;20458;-67
2023/11/08 08:25:11;;;;;;;2.47;1.00;;;9.80;99.90;;;9.91;99.61;100578.28;4742331;30;20469;-68
2023/11/08 08:27:58;;;;;;;2.07;1.00;;;9.80;99.90;;;10.01;100.00;100581.44;4754588;30;20490;-68
2023/11/08 08:30:40;;;;;;;3.17;0.90;;;9.80;99.90;;;9.72;100.00;100573.69;4738670;30;20424;-67
2023/11/08 08:33:33;;;;;;;4.27;1.43;;;9.60;1.00;;;9.74;100.00;100582.38;4754748;30;20466;-68
2023/11/08 08:36:31;;;;;;;3.75;1.35;;;9.60;29.20;;;9.59;100.00;100582.56;4751046;30;20455;-67
2023/11/08 08:39:27;;;;;;;1.52;1.02;;;9.50;12.70;;;9.64;100.00;100581.94;4752932;30;20212;-68
2023/11/08 08:42:16;;;;;;;4.47;1.27;;;9.50;49.30;;;9.61;100.00;100593.16;4739743;30;20303;-67
2023/11/08 08:45:13;;;;;;;2.00;1.30;;;9.50;99.90;;;9.68;100.00;100596.75;4749820;30;20537;-68
2023/11/08 08:47:52;;;;;;;1.43;1.00;;;;;;;9.85;100.00;100589.06;4733808;30;20493;-69
2023/11/08 08:50:36;;;;;;;1.67;0.87;;;9.60;99.90;;;9.92;100.00;100596.16;4749008;30;20437;-68
2023/11/08 08:53:19;;;;;;;3.20;1.10;;;9.70;1.00;;;10.03;100.00;100608.22;4733767;30;20570;-68
2023/11/08 08:56:05;;;;;;;1.52;0.80;;;9.70;1.00;;;10.21;99.90;100605.81;4748081;30;20469;-67
2023/11/08 08:58:58;;;;;;;2.23;1.10;;;9.90;1.00;;;10.34;96.87;100603.09;4734051;30;20220;-68
2023/11/08 09:01:39;;;;;;;1.20;0.90;;;10.10;99.90;;;10.43;95.71;100609.13;4734836;30;20454;-68
2023/11/08 09:04:20;;;;;;;2.83;1.00;;;10.20;99.90;;;10.48;95.83;100606.63;4719793;30;20478;-67
2023/11/08 09:07:00;;;;;;;1.93;1.10;;;10.20;99.90;;;10.36;94.87;100608.31;4733921;30;20486;-68
2023/11/08 09:09:45;;;;;;;1.80;0.97;;;10.20;28.80;;;10.41;95.63;100605.78;4733973;30;20472;-65
2023/11/08 09:12:35;;;;;;;1.73;1.10;;;10.20;65.10;;;10.57;95.02;100605.38;4746064;30;20434;-67
2023/11/08 09:15:30;;;;;;;2.23;1.47;;;10.30;66.30;;;10.80;92.72;100610.34;4748350;30;20448;-66
2023/11/08 09:18:21;;;;;;;4.10;0.70;;;10.40;1.00;;;10.88;91.71;100611.00;4731084;30;20433;-68
2023/11/08 09:21:03;;;;;;;1.47;0.93;;;10.60;1.00;;;10.85;92.17;100619.50;4734301;30;20433;-68
2023/11/08 09:23:45;;;;;;;1.43;1.20;;;10.60;1.00;;;10.85;91.66;100619.50;4733839;30;20461;-67
2023/11/08 09:26:33;;;;;;;1.97;1.30;;;10.60;1.00;;;11.04;90.53;100611.56;4734970;30;20425;-68
2023/11/08 09:29:15;;;;;;;1.20;0.90;;;10.70;1.00;;;11.01;90.06;100617.41;4746108;30;20466;-67
2023/11/08 09:32:03;;;;;;;0.93;0.70;;;10.80;1.00;;;11.11;89.52;100615.09;4747668;30;20446;-68
2023/11/08 09:34:55;;;;;;;1.83;1.03;;;10.80;99.90;;;11.19;88.86;100625.69;4731398;30;20491;-68
2023/11/08 09:37:39;;;;;;;1.20;0.83;;;10.90;1.00;;;11.16;87.63;100618.00;4734258;30;20428;-68
2023/11/08 09:40:20;;;;;;;3.00;1.50;;;10.90;1.00;;;11.23;88.32;100627.75;4733450;30;20508;-68
2023/11/08 09:43:05;;;;;;;1.73;1.20;;;11.00;99.90;;;11.18;87.65;100624.03;4747409;30;20478;-67
2023/11/08 09:45:41;;;;;;;1.33;1.17;;;11.00;99.90;;;11.32;87.84;100620.25;4733060;30;20506;-67
2023/11/08 09:48:28;;;;;;;1.70;1.10;;;11.00;99.90;;;11.41;87.17;100618.13;4732876;30;20461;-67
2023/11/08 09:51:10;;;;;;;3.17;1.87;;;11.10;1.00;;;11.40;86.00;100633.53;4733975;30;20444;-68
2023/11/08 09:53:53;;;;;;;2.87;1.33;;;11.20;99.90;;;11.33;85.97;100630.00;4747477;30;20457;-68
2023/11/08 09:56:37;;;;;;;2.00;0.93;;;11.10;99.90;;;11.45;85.80;100619.34;4747591;30;20504;-67
2023/11/08 09:59:23;;;;;;;1.33;1.13;;;11.20;99.90;;;11.43;85.74;100614.13;4747713;30;20458;-73
2023/11/08 10:02:07;;;;;;;3.10;1.40;;;11.20;99.90;;;11.68;85.76;100611.53;4733541;30;20547;-68
2023/11/08 10:04:47;;;;;;;2.77;0.90;;;11.30;99.90;;;11.85;83.73;100618.16;4747261;30;20886;-68
2023/11/08 10:07:41;;;;;;;3.43;1.00;;;11.50;99.90;;;11.74;84.06;100629.69;4747392;30;20544;-69
2023/11/08 10:10:19;;;;;;;3.63;1.40;;;11.50;99.90;;;11.82;83.51;100620.44;4744422;30;20797;-68
2023/11/08 10:13:08;;;;;;;1.03;0.80;;;11.50;99.90;;;11.67;81.49;100618.81;4746159;30;20460;-67
2023/11/08 10:15:59;;;;;;;1.67;1.37;;;11.50;99.90;;;11.62;82.10;100615.94;4747044;30;20469;-67
2023/11/08 10:18:42;;;;;;;1.73;1.10;;;11.40;99.90;;;11.54;83.11;100618.91;4747150;30;20462;-65
2023/11/08 10:21:53;;;;;;;1.27;1.00;;;11.40;99.90;;;11.50;83.82;100623.09;4734140;30;20424;-68
2023/11/08 10:24:35;;;;;;;3.50;1.20;;;11.30;99.90;;;11.62;83.04;100620.50;4744041;30;20591;-67
2023/11/08 10:27:16;;;;;;;4.97;1.43;;;11.30;99.90;;;11.66;82.41;100628.03;4733176;30;20485;-67
2023/11/08 10:30:18;;;;;;;5.40;1.00;;;11.40;99.90;;;11.53;82.70;100617.22;4751228;30;20487;-68
2023/11/08 10:33:13;;;;;;;2.90;0.90;;;11.40;99.90;;;11.68;82.62;100615.06;4749975;30;21014;-68
2023/11/08 10:35:59;;;;;;;2.00;0.97;;;11.40;99.90;;;11.75;83.26;100618.63;4736262;30;20561;-68
2023/11/08 10:38:50;;;;;;;2.43;0.93;;;11.50;1.00;;;11.63;81.52;100611.34;4737063;30;21065;-68
2023/11/08 10:41:39;;;;;;;1.77;0.93;;;11.40;99.90;;;11.72;81.64;100610.91;4734722;30;20483;-69
2023/11/08 10:44:22;;;;;;;1.10;0.77;;;11.50;99.90;;;11.82;80.87;100621.28;4748860;30;20909;-67
2023/11/08 10:47:03;;;;;;;2.87;1.20;;;11.60;99.90;;;11.74;80.34;100619.69;4751579;30;20428;-68
2023/11/08 10:49:45;;;;;;;1.00;0.70;;;11.60;1.00;;;11.76;81.13;100617.56;4737391;30;20442;-68
2023/11/08 10:52:25;;;;;;;1.00;0.60;;;11.50;99.90;;;11.77;80.49;100607.56;4745181;30;20461;-68
2023/11/08 10:55:11;;;;;;;1.30;1.00;;;11.60;99.90;;;12.17;83.40;100613.56;4719841;30;20540;-67
2023/11/08 10:58:01;;;;;;;2.80;1.20;;;11.80;99.90;;;12.29;79.32;100614.53;4738196;30;20980;-67
2023/11/08 11:00:44;;;;;;;3.37;1.10;;;11.90;99.90;;;12.40;78.97;100616.53;4737236;30;20408;-68
2023/11/08 11:03:21;;;;;;;2.30;1.07;;;12.10;99.90;;;12.16;77.97;100620.03;4733733;30;20479;-68
2023/11/08 11:06:11;;;;;;;3.43;1.20;;;12.00;1.00;;;11.92;79.20;100621.66;4750496;30;20436;-69
2023/11/08 11:08:54;;;;;;;1.87;1.00;;;11.90;1.00;;;11.96;79.64;100611.19;4749863;30;20565;-68